Time;durP1;ratioP1;P1;durP2;ratioP2;P2;SDS_P1;SDS_P2;PMS_P1;PMS_P2;Temp;Humidity;BMP_temperature;BMP_pressure;BME280_temperature;BME280_humidity;BME280_pressure;Samples;Min_cycle;Max_cycle;Signal;HPM_P1;HPM_P2
2023/06/09 00:01:16;;;;;;;1.43;0.90;;;19.00;98.20;;;;;;4997837;28;20528;-82
2023/06/09 00:03:45;;;;;;;1.47;0.90;;;19.00;98.20;;;;;;5002807;28;20488;-82
2023/06/09 00:06:12;;;;;;;1.43;0.90;;;18.90;98.20;;;;;;4998473;28;20576;-82
2023/06/09 00:08:40;;;;;;;1.50;1.00;;;18.80;98.20;;;;;;5004306;28;20555;-82
2023/06/09 00:11:09;;;;;;;1.50;0.90;;;18.80;98.20;;;;;;4996236;28;20541;-82
2023/06/09 00:13:36;;;;;;;1.50;1.00;;;18.80;98.20;;;;;;5007504;28;20507;-82
2023/06/09 00:16:03;;;;;;;1.47;0.90;;;18.80;98.20;;;;;;4998585;28;20459;-82
2023/06/09 00:18:32;;;;;;;1.50;1.10;;;18.70;98.20;;;;;;5011126;28;20527;-82
2023/06/09 00:21:00;;;;;;;1.50;0.90;;;18.70;98.20;;;;;;4994144;28;21032;-82
2023/06/09 00:23:29;;;;;;;1.43;1.00;;;18.70;98.20;;;;;;5006913;28;20511;-82
2023/06/09 00:25:56;;;;;;;1.50;1.00;;;18.60;98.20;;;;;;4996163;28;20548;-82
2023/06/09 00:28:23;;;;;;;1.40;0.90;;;18.60;98.20;;;;;;5004649;28;20535;-82
2023/06/09 00:30:50;;;;;;;1.47;0.90;;;18.60;98.20;;;;;;4988162;28;21062;-82
2023/06/09 00:33:18;;;;;;;1.47;0.90;;;18.50;98.20;;;;;;5004192;28;20523;-82
2023/06/09 00:35:49;;;;;;;1.50;1.10;;;18.50;98.20;;;;;;5005638;28;20516;-81
2023/06/09 00:38:16;;;;;;;1.43;0.90;;;18.40;98.20;;;;;;4975458;28;20473;-82
2023/06/09 00:40:43;;;;;;;1.50;1.00;;;18.40;98.20;;;;;;5002577;28;20548;-82
2023/06/09 00:43:13;;;;;;;1.50;0.90;;;18.40;98.20;;;;;;4993013;28;20506;-82
2023/06/09 00:45:40;;;;;;;1.50;1.00;;;18.30;98.20;;;;;;5004531;28;20528;-82
2023/06/09 00:48:08;;;;;;;1.50;0.90;;;18.30;98.20;;;;;;4999395;28;20516;-82
2023/06/09 00:50:37;;;;;;;1.43;0.90;;;18.30;98.20;;;;;;5002856;28;20562;-82
2023/06/09 00:53:06;;;;;;;1.43;1.00;;;18.20;98.20;;;;;;4995052;28;20481;-82
2023/06/09 00:55:34;;;;;;;1.50;1.00;;;18.20;98.20;;;;;;5007040;28;20456;-82
2023/06/09 00:58:03;;;;;;;1.50;0.90;;;18.10;98.20;;;;;;4992107;28;20481;-82
2023/06/09 01:00:31;;;;;;;1.50;0.90;;;18.10;98.20;;;;;;5003454;28;20461;-82
2023/06/09 01:03:00;;;;;;;1.50;0.90;;;18.00;98.20;;;;;;4997839;28;20488;-82
2023/06/09 01:05:28;;;;;;;1.43;0.90;;;18.00;98.20;;;;;;5001174;28;20450;-82
2023/06/09 01:07:59;;;;;;;1.50;0.90;;;17.90;98.20;;;;;;4994573;28;20553;-82
2023/06/09 01:10:34;;;;;;;1.50;0.90;;;17.90;98.20;;;;;;4999857;28;20481;-82
2023/06/09 01:13:11;;;;;;;1.50;1.00;;;17.90;98.20;;;;;;4984799;28;20491;-82
2023/06/09 01:15:44;;;;;;;1.50;0.90;;;17.90;98.20;;;;;;5015978;28;20495;-82
2023/06/09 01:18:14;;;;;;;1.43;0.90;;;17.90;98.20;;;;;;4993049;28;20548;-84
2023/06/09 01:20:49;;;;;;;1.43;0.90;;;17.90;98.20;;;;;;5001186;28;20837;-84
2023/06/09 01:23:26;;;;;;;1.50;1.00;;;17.90;98.20;;;;;;4976854;28;20472;-83
2023/06/09 01:25:55;;;;;;;1.50;1.00;;;17.90;98.20;;;;;;4991294;28;21019;-83
2023/06/09 01:28:24;;;;;;;1.50;1.00;;;17.90;98.20;;;;;;5006067;28;20488;-84
2023/06/09 01:30:53;;;;;;;1.50;1.00;;;17.90;98.20;;;;;;4992267;28;20905;-83
2023/06/09 01:36:05;;;;;;;1.50;0.93;;;17.80;98.20;;;;;;4979323;28;20472;-84
2023/06/09 01:38:33;;;;;;;1.47;0.90;;;17.80;98.20;;;;;;5002702;28;20468;-84
2023/06/09 01:41:03;;;;;;;1.40;0.93;;;17.80;98.20;;;;;;4993977;28;20552;-84
2023/06/09 01:43:31;;;;;;;1.50;0.97;;;17.70;98.20;;;;;;4999345;28;21037;-84
2023/06/09 01:45:58;;;;;;;1.50;0.90;;;17.70;98.20;;;;;;4991698;28;20461;-84
2023/06/09 01:48:32;;;;;;;1.50;1.00;;;17.70;98.20;;;;;;5004352;28;20491;-84
2023/06/09 01:51:04;;;;;;;1.50;1.00;;;17.70;98.20;;;;;;4992552;28;20496;-85
2023/06/09 01:53:35;;;;;;;1.50;1.00;;;17.70;98.20;;;;;;4998687;28;20473;-83
2023/06/09 01:56:09;;;;;;;1.50;0.90;;;17.60;98.20;;;;;;4986233;28;20539;-85
2023/06/09 01:58:42;;;;;;;1.50;1.00;;;17.60;98.20;;;;;;4995663;28;21066;-84
2023/06/09 02:01:10;;;;;;;1.60;1.20;;;17.60;98.20;;;;;;4988747;28;20473;-84
2023/06/09 02:03:40;;;;;;;1.47;0.90;;;17.50;98.20;;;;;;4999695;28;20540;-85
2023/06/09 02:06:08;;;;;;;1.50;1.00;;;17.50;98.20;;;;;;4990409;28;20474;-85
2023/06/09 02:08:35;;;;;;;1.50;1.00;;;17.50;98.20;;;;;;5005726;28;20967;-85
2023/06/09 02:11:04;;;;;;;1.50;1.00;;;17.50;98.20;;;;;;4996855;28;20485;-85
2023/06/09 02:13:34;;;;;;;1.50;1.00;;;17.40;98.20;;;;;;5005618;28;20515;-84
2023/06/09 02:16:01;;;;;;;1.47;1.00;;;17.40;98.20;;;;;;4992729;28;20461;-84
2023/06/09 02:18:30;;;;;;;1.50;0.90;;;17.40;98.20;;;;;;5002186;28;20747;-85
2023/06/09 02:20:57;;;;;;;1.50;1.00;;;17.40;98.20;;;;;;4992452;28;20520;-85
2023/06/09 02:23:25;;;;;;;1.47;1.00;;;17.40;98.20;;;;;;5003462;28;20624;-85
2023/06/09 02:25:52;;;;;;;1.50;1.00;;;17.40;98.20;;;;;;4994344;28;20468;-84
2023/06/09 02:28:20;;;;;;;1.50;0.90;;;17.40;98.20;;;;;;5008249;28;20489;-85
2023/06/09 02:33:30;;;;;;;1.50;1.00;;;17.30;98.20;;;;;;4997010;28;20572;-85
2023/06/09 02:35:58;;;;;;;1.50;1.00;;;17.30;98.20;;;;;;4994854;28;20457;-84
2023/06/09 02:38:52;;;;;;;1.47;0.97;;;17.30;98.20;;;;;;5008560;28;20497;-84
2023/06/09 02:41:20;;;;;;;1.50;1.00;;;17.30;98.20;;;;;;4993413;28;20477;-84
2023/06/09 02:43:48;;;;;;;1.50;1.00;;;17.20;98.20;;;;;;5006027;28;20474;-85
2023/06/09 02:46:17;;;;;;;1.43;1.00;;;17.20;98.20;;;;;;4999911;28;20472;-85
2023/06/09 02:48:44;;;;;;;1.50;1.00;;;17.20;98.20;;;;;;5008526;28;20556;-85
2023/06/09 02:51:11;;;;;;;1.50;0.90;;;17.10;98.20;;;;;;5000546;28;20519;-85
2023/06/09 02:53:39;;;;;;;1.50;1.00;;;17.10;98.20;;;;;;5007590;28;20495;-85
2023/06/09 02:56:05;;;;;;;1.50;1.00;;;17.00;98.20;;;;;;4998360;28;20493;-84
2023/06/09 02:58:33;;;;;;;1.50;1.00;;;17.00;98.20;;;;;;5008402;28;21003;-85
2023/06/09 03:01:02;;;;;;;1.50;1.00;;;17.00;98.20;;;;;;4996479;28;20971;-84
2023/06/09 03:03:32;;;;;;;1.50;1.00;;;17.00;98.20;;;;;;5003085;28;20577;-85
2023/06/09 03:05:59;;;;;;;1.50;0.90;;;17.00;98.20;;;;;;5001259;28;20472;-85
2023/06/09 03:08:26;;;;;;;1.50;0.90;;;16.90;98.20;;;;;;5008278;28;20460;-85
2023/06/09 03:10:56;;;;;;;1.50;1.00;;;16.90;98.20;;;;;;4997940;28;20488;-85
2023/06/09 03:13:22;;;;;;;1.50;1.10;;;16.90;98.20;;;;;;5016786;23;20493;-79
2023/06/09 03:15:50;;;;;;;1.50;1.00;;;16.90;98.20;;;;;;5004030;28;20456;-81
2023/06/09 03:18:18;;;;;;;1.50;1.00;;;16.90;98.20;;;;;;5004758;28;20513;-81
2023/06/09 03:20:45;;;;;;;1.50;1.00;;;16.90;98.20;;;;;;5000742;28;20453;-82
2023/06/09 03:23:12;;;;;;;1.50;0.90;;;16.80;98.20;;;;;;4973159;28;20512;-83
2023/06/09 03:25:39;;;;;;;1.50;0.93;;;16.80;98.20;;;;;;4982064;28;20461;-80
2023/06/09 03:28:05;;;;;;;1.50;0.90;;;16.80;98.20;;;;;;4973961;28;20490;-80
2023/06/09 03:30:32;;;;;;;1.50;1.00;;;16.80;98.20;;;;;;4985494;28;20496;-81
2023/06/09 03:32:59;;;;;;;1.50;1.00;;;16.80;98.20;;;;;;4972852;28;20521;-79
2023/06/09 03:35:27;;;;;;;1.50;1.00;;;16.80;98.20;;;;;;4991478;28;20456;-83
2023/06/09 03:37:54;;;;;;;1.50;0.90;;;16.80;98.20;;;;;;4978724;28;20493;-79
2023/06/09 03:40:21;;;;;;;1.50;1.00;;;16.80;98.20;;;;;;4986726;28;20647;-80
2023/06/09 03:42:48;;;;;;;1.50;1.00;;;16.80;98.20;;;;;;4975452;28;20533;-80
2023/06/09 03:45:15;;;;;;;1.50;1.00;;;16.80;98.20;;;;;;4983810;28;20490;-80
2023/06/09 03:47:42;;;;;;;1.47;0.90;;;16.80;98.20;;;;;;4971126;28;20489;-82
2023/06/09 03:50:09;;;;;;;1.50;1.00;;;16.80;98.20;;;;;;4984465;28;21029;-79
2023/06/09 03:52:37;;;;;;;1.50;1.00;;;16.80;98.20;;;;;;4974336;28;20481;-79
2023/06/09 03:55:06;;;;;;;1.50;1.00;;;16.80;98.20;;;;;;4985009;28;20513;-79
2023/06/09 03:57:33;;;;;;;1.50;0.97;;;16.80;98.20;;;;;;4972362;28;20503;-81
2023/06/09 03:59:59;;;;;;;1.50;1.00;;;16.80;98.20;;;;;;4982855;28;20481;-81
2023/06/09 04:02:26;;;;;;;1.50;1.20;;;16.80;98.20;;;;;;4979178;28;21021;-80
2023/06/09 04:04:53;;;;;;;1.50;1.00;;;16.80;98.20;;;;;;4984352;28;20870;-80
2023/06/09 04:07:20;;;;;;;1.50;1.00;;;16.80;98.20;;;;;;4978116;28;20473;-80
2023/06/09 04:09:48;;;;;;;1.50;0.90;;;16.80;98.20;;;;;;4985929;28;20838;-83
2023/06/09 04:12:15;;;;;;;1.50;1.07;;;16.90;98.20;;;;;;4975173;28;20489;-78
2023/06/09 04:14:41;;;;;;;1.50;1.00;;;16.90;98.20;;;;;;4983749;28;20486;-80
2023/06/09 04:17:08;;;;;;;1.50;1.00;;;16.90;98.20;;;;;;4977480;28;21003;-77
2023/06/09 04:19:35;;;;;;;1.43;1.00;;;16.90;98.20;;;;;;4984795;28;20836;-82
2023/06/09 04:22:07;;;;;;;1.50;1.00;;;16.90;98.20;;;;;;4976481;28;20488;-81
2023/06/09 04:24:34;;;;;;;1.50;1.00;;;16.90;98.20;;;;;;4983460;28;20489;-80
2023/06/09 04:27:03;;;;;;;1.50;1.00;;;17.00;98.20;;;;;;4974159;28;20765;-78
2023/06/09 04:29:31;;;;;;;1.50;1.00;;;17.00;98.20;;;;;;4984898;28;20544;-81
2023/06/09 04:31:59;;;;;;;1.50;0.90;;;17.00;98.20;;;;;;4974664;28;20521;-81
2023/06/09 04:34:27;;;;;;;1.47;0.90;;;17.00;98.20;;;;;;4979417;28;20547;-80
2023/06/09 04:36:55;;;;;;;1.50;1.00;;;17.10;98.20;;;;;;4974933;28;20513;-78
2023/06/09 04:39:25;;;;;;;1.50;1.00;;;17.10;98.20;;;;;;4984034;28;20512;-83
2023/06/09 04:41:53;;;;;;;1.50;1.10;;;17.20;98.20;;;;;;4972857;28;20839;-82
2023/06/09 04:44:22;;;;;;;1.50;1.00;;;17.30;98.20;;;;;;4984993;28;20478;-82
2023/06/09 04:46:49;;;;;;;1.50;1.00;;;17.40;98.20;;;;;;4975480;28;20482;-80
2023/06/09 04:49:16;;;;;;;1.50;0.90;;;17.50;98.20;;;;;;4990451;28;20466;-78
2023/06/09 04:51:48;;;;;;;1.50;0.90;;;17.60;98.20;;;;;;4976807;28;20492;-80
2023/06/09 04:54:15;;;;;;;1.50;1.00;;;17.80;98.20;;;;;;4992750;28;20487;-81
2023/06/09 04:56:43;;;;;;;1.47;0.93;;;18.00;98.20;;;;;;4984889;28;20490;-78
2023/06/09 04:59:11;;;;;;;1.60;1.20;;;18.20;98.20;;;;;;4992498;28;20576;-78
2023/06/09 05:01:40;;;;;;;2.20;1.43;;;18.40;98.20;;;;;;4983143;28;20595;-77
2023/06/09 05:04:07;;;;;;;1.50;0.90;;;18.50;98.20;;;;;;4992828;28;20576;-79
2023/06/09 05:06:36;;;;;;;1.50;1.03;;;18.60;98.20;;;;;;4976233;28;20651;-78
2023/06/09 05:09:03;;;;;;;1.50;0.90;;;18.70;98.20;;;;;;4991598;28;20466;-78
2023/06/09 05:11:30;;;;;;;1.50;1.03;;;18.70;98.20;;;;;;4982371;28;20485;-78
2023/06/09 05:13:57;;;;;;;1.50;0.93;;;18.90;98.20;;;;;;4986279;28;20631;-78
2023/06/09 05:16:25;;;;;;;1.50;0.90;;;19.00;98.20;;;;;;4985588;28;20888;-81
2023/06/09 05:18:53;;;;;;;1.50;1.00;;;19.20;98.20;;;;;;5002561;28;21071;-81
2023/06/09 05:21:23;;;;;;;1.50;0.90;;;19.40;98.20;;;;;;4985062;28;21358;-78
2023/06/09 05:23:49;;;;;;;1.50;0.90;;;19.50;98.20;;;;;;4994318;28;20480;-78
2023/06/09 05:26:16;;;;;;;1.50;0.90;;;19.70;98.20;;;;;;4982743;28;20488;-79
2023/06/09 05:28:43;;;;;;;1.50;0.90;;;19.80;98.20;;;;;;4986308;28;20465;-79
2023/06/09 05:31:11;;;;;;;1.50;0.90;;;19.90;98.20;;;;;;4980356;28;20490;-79
2023/06/09 05:33:39;;;;;;;1.50;0.90;;;20.00;98.20;;;;;;4991624;28;20933;-78
2023/06/09 05:36:08;;;;;;;1.50;0.90;;;20.10;98.20;;;;;;4987745;28;20556;-76
2023/06/09 05:38:34;;;;;;;1.47;0.90;;;20.30;98.20;;;;;;5001947;28;20465;-78
2023/06/09 05:41:01;;;;;;;1.50;0.90;;;20.50;98.20;;;;;;4981165;28;20463;-78
2023/06/09 05:43:28;;;;;;;1.50;0.90;;;20.60;98.20;;;;;;4985826;28;20504;-78
2023/06/09 05:45:55;;;;;;;1.50;0.93;;;20.80;98.20;;;;;;4975336;28;20452;-79
2023/06/09 05:48:22;;;;;;;1.50;0.90;;;20.90;98.20;;;;;;4986540;28;20512;-80
2023/06/09 05:50:50;;;;;;;1.80;1.30;;;21.00;98.20;;;;;;4984245;28;20794;-79
2023/06/09 05:53:18;;;;;;;1.50;0.90;;;21.20;98.20;;;;;;4983171;28;20487;-79
2023/06/09 05:55:45;;;;;;;1.50;0.90;;;21.30;98.20;;;;;;4989121;28;20470;-79
2023/06/09 05:58:12;;;;;;;1.70;1.30;;;21.40;98.20;;;;;;4963127;28;20539;-79
2023/06/09 06:00:39;;;;;;;1.50;0.90;;;21.60;98.20;;;;;;4988676;28;20457;-78
2023/06/09 06:03:08;;;;;;;1.50;0.90;;;21.80;98.20;;;;;;4982584;28;20941;-78
2023/06/09 06:05:35;;;;;;;1.50;0.90;;;21.90;98.20;;;;;;4990675;28;20473;-78
2023/06/09 06:08:02;;;;;;;1.50;0.90;;;22.10;97.50;;;;;;4985598;28;20530;-78
2023/06/09 06:10:30;;;;;;;1.50;0.90;;;22.20;98.00;;;;;;4998363;28;20461;-77
2023/06/09 06:12:59;;;;;;;1.50;0.90;;;22.40;97.40;;;;;;4987482;28;20481;-79
2023/06/09 06:15:26;;;;;;;1.50;0.97;;;22.50;96.70;;;;;;4996554;28;20460;-76
2023/06/09 06:17:52;;;;;;;1.50;0.90;;;22.80;95.90;;;;;;4984842;28;20944;-80
2023/06/09 06:20:19;;;;;;;1.50;0.90;;;22.90;95.20;;;;;;4992802;28;20464;-77
2023/06/09 06:22:46;;;;;;;1.50;0.90;;;23.10;94.10;;;;;;4977927;28;20488;-76
2023/06/09 06:25:13;;;;;;;1.47;0.90;;;23.30;93.80;;;;;;4992923;28;20508;-77
2023/06/09 06:27:42;;;;;;;1.50;0.90;;;23.50;94.70;;;;;;4981454;28;20489;-79
2023/06/09 06:30:09;;;;;;;1.60;1.30;;;23.60;93.20;;;;;;4995913;28;20519;-78
2023/06/09 06:32:36;;;;;;;1.50;0.90;;;23.80;91.90;;;;;;4972926;28;20489;-77
2023/06/09 06:35:03;;;;;;;1.50;0.90;;;23.90;92.40;;;;;;4989901;28;20477;-81
2023/06/09 06:37:31;;;;;;;1.50;0.90;;;24.10;90.30;;;;;;4973156;28;20488;-78
2023/06/09 06:39:58;;;;;;;1.50;0.90;;;24.20;91.20;;;;;;4988647;28;20489;-81
2023/06/09 06:42:25;;;;;;;1.60;1.00;;;24.30;91.00;;;;;;4976837;28;20540;-79
2023/06/09 06:44:53;;;;;;;1.47;0.90;;;24.40;89.70;;;;;;4988370;28;20481;-77
2023/06/09 06:47:20;;;;;;;1.50;0.90;;;24.50;90.50;;;;;;4975001;28;20478;-77
2023/06/09 06:49:46;;;;;;;1.50;0.90;;;24.70;89.10;;;;;;4993313;28;20475;-80
2023/06/09 06:52:13;;;;;;;1.60;1.10;;;24.80;88.20;;;;;;4985861;28;20837;-83
2023/06/09 06:54:40;;;;;;;1.47;0.90;;;25.00;86.70;;;;;;4995647;28;20488;-80
2023/06/09 06:57:07;;;;;;;1.50;0.90;;;25.20;86.90;;;;;;4985979;28;20476;-77
2023/06/09 06:59:33;;;;;;;1.50;0.90;;;25.40;86.50;;;;;;4996014;28;20461;-79
2023/06/09 07:02:02;;;;;;;1.50;0.90;;;25.40;83.30;;;;;;4981941;28;20488;-78
2023/06/09 07:04:29;;;;;;;1.50;0.87;;;25.40;85.00;;;;;;4992609;28;21109;-79
2023/06/09 07:06:56;;;;;;;1.47;0.90;;;25.40;84.30;;;;;;4982153;28;20480;-82
2023/06/09 07:09:24;;;;;;;1.50;0.90;;;25.40;82.80;;;;;;4994777;28;20461;-79
2023/06/09 07:11:51;;;;;;;2.63;1.37;;;25.40;83.50;;;;;;4976502;28;20536;-78
2023/06/09 07:14:17;;;;;;;1.50;0.90;;;25.50;84.20;;;;;;4986729;28;20496;-78
2023/06/09 07:16:44;;;;;;;1.53;1.07;;;25.60;84.70;;;;;;4974999;28;20580;-77
2023/06/09 07:19:12;;;;;;;1.50;0.90;;;25.80;83.60;;;;;;4988397;28;21006;-80
2023/06/09 07:21:39;;;;;;;1.50;0.90;;;25.80;83.20;;;;;;4973151;28;20501;-78
2023/06/09 07:24:06;;;;;;;2.53;1.10;;;25.80;83.60;;;;;;4989185;28;20897;-82
2023/06/09 07:26:33;;;;;;;1.50;0.80;;;25.90;83.30;;;;;;4983072;28;20485;-79
2023/06/09 07:29:00;;;;;;;1.50;0.90;;;25.90;82.70;;;;;;4999635;28;20954;-81
2023/06/09 07:31:27;;;;;;;1.47;0.90;;;25.90;83.00;;;;;;4980259;28;20581;-80
2023/06/09 07:33:54;;;;;;;1.50;1.00;;;26.10;82.50;;;;;;4992205;28;20498;-79
2023/06/09 07:36:22;;;;;;;1.50;0.80;;;26.00;82.10;;;;;;4977595;28;20539;-81
2023/06/09 07:38:49;;;;;;;1.50;0.90;;;26.00;83.10;;;;;;4983766;28;20467;-80
2023/06/09 07:41:15;;;;;;;1.50;0.90;;;26.20;83.30;;;;;;4977814;28;20476;-78
2023/06/09 07:43:44;;;;;;;1.50;0.90;;;26.40;82.10;;;;;;4993525;28;20485;-80
2023/06/09 07:46:13;;;;;;;1.50;0.90;;;26.60;81.60;;;;;;4989448;28;20500;-79
2023/06/09 07:48:42;;;;;;;1.50;0.80;;;26.80;81.70;;;;;;4991671;28;20475;-76
2023/06/09 07:51:10;;;;;;;1.50;1.00;;;26.90;81.30;;;;;;4985962;28;20488;-79
2023/06/09 07:53:38;;;;;;;1.43;0.80;;;27.00;82.10;;;;;;4993368;28;20484;-80
2023/06/09 07:56:05;;;;;;;1.43;0.80;;;27.00;80.50;;;;;;4984689;28;20485;-78
2023/06/09 07:58:31;;;;;;;1.40;0.80;;;27.00;80.70;;;;;;4991703;28;21122;-79
2023/06/09 08:00:58;;;;;;;1.43;0.90;;;27.00;79.00;;;;;;4981317;28;20855;-78
2023/06/09 08:03:25;;;;;;;1.50;1.00;;;27.10;80.30;;;;;;4991358;28;20476;-79
2023/06/09 08:05:52;;;;;;;1.47;0.80;;;27.40;81.00;;;;;;4981976;28;20625;-79
2023/06/09 08:08:19;;;;;;;1.40;0.80;;;27.60;79.20;;;;;;4985450;28;20457;-77
2023/06/09 08:10:47;;;;;;;1.60;1.23;;;27.70;77.10;;;;;;4991400;28;21042;-82
2023/06/09 08:13:15;;;;;;;1.47;0.80;;;27.70;78.50;;;;;;4964736;28;20496;-79
2023/06/09 08:15:44;;;;;;;1.47;0.80;;;27.80;77.90;;;;;;4990239;28;20461;-78
2023/06/09 08:18:11;;;;;;;1.50;0.80;;;27.90;78.20;;;;;;4983630;28;20884;-76
2023/06/09 08:20:39;;;;;;;1.47;0.80;;;28.10;78.10;;;;;;4994316;28;20456;-77
2023/06/09 08:23:07;;;;;;;1.50;0.90;;;28.20;76.60;;;;;;4978241;28;20480;-75
2023/06/09 08:25:34;;;;;;;1.43;0.80;;;28.40;76.40;;;;;;4991914;28;21009;-77
2023/06/09 08:28:03;;;;;;;1.50;0.80;;;28.60;76.40;;;;;;4980331;28;20484;-81
2023/06/09 08:30:29;;;;;;;1.50;0.80;;;28.70;75.60;;;;;;4990897;28;21021;-77
2023/06/09 08:32:57;;;;;;;1.43;0.80;;;28.70;75.50;;;;;;4977703;28;20507;-76
2023/06/09 08:35:24;;;;;;;1.43;0.80;;;28.80;75.70;;;;;;4991506;28;20463;-79
2023/06/09 08:37:51;;;;;;;1.90;1.33;;;29.00;75.90;;;;;;4976104;28;20598;-83
2023/06/09 08:40:18;;;;;;;1.43;0.80;;;29.20;75.50;;;;;;4998316;28;20459;-77
2023/06/09 08:42:47;;;;;;;1.43;0.80;;;29.40;74.60;;;;;;4985048;28;20994;-79
2023/06/09 08:45:19;;;;;;;1.50;0.80;;;29.50;74.60;;;;;;5002271;28;20545;-76
2023/06/09 08:47:48;;;;;;;1.43;0.80;;;29.80;73.60;;;;;;4981206;28;20535;-78
2023/06/09 08:50:18;;;;;;;1.50;0.80;;;29.90;73.00;;;;;;4998371;28;20547;-80
2023/06/09 08:52:46;;;;;;;1.43;0.80;;;30.00;73.80;;;;;;4980565;28;20947;-80
2023/06/09 08:55:14;;;;;;;1.50;0.80;;;30.00;72.60;;;;;;4997739;28;20488;-80
2023/06/09 08:57:41;;;;;;;1.50;0.90;;;30.00;72.90;;;;;;4980283;28;20844;-79
2023/06/09 09:00:11;;;;;;;1.50;0.90;;;30.20;72.80;;;;;;4995752;28;20484;-77
2023/06/09 09:02:40;;;;;;;1.43;0.80;;;30.40;71.50;;;;;;4980354;28;20484;-77
2023/06/09 09:05:08;;;;;;;1.47;0.80;;;30.40;72.10;;;;;;4995907;28;20476;-81
2023/06/09 09:07:35;;;;;;;1.47;0.80;;;30.50;72.90;;;;;;4977947;28;20483;-80
2023/06/09 09:10:02;;;;;;;1.47;0.80;;;30.70;71.30;;;;;;4993683;28;20457;-78
2023/06/09 09:12:53;;;;;;;1.50;0.80;;;30.90;70.80;;;;;;4985114;28;20508;-79
2023/06/09 09:15:27;;;;;;;1.43;0.80;;;31.10;71.00;;;;;;4987078;28;20576;-76
2023/06/09 09:17:57;;;;;;;1.40;0.80;;;31.20;68.00;;;;;;4976409;28;20491;-80
2023/06/09 09:20:32;;;;;;;1.43;0.80;;;31.00;68.30;;;;;;4994274;28;20808;-75
2023/06/09 09:22:59;;;;;;;1.43;0.80;;;30.90;69.30;;;;;;4977102;28;20483;-79
2023/06/09 09:25:28;;;;;;;1.70;1.10;;;30.90;68.30;;;;;;4989147;28;20905;-78
2023/06/09 09:28:03;;;;;;;1.40;0.80;;;30.90;70.20;;;;;;4981571;28;20483;-79
2023/06/09 09:30:44;;;;;;;1.40;0.80;;;31.10;69.50;;;;;;4996332;28;20460;-80
2023/06/09 09:33:15;;;;;;;1.47;0.90;;;31.40;70.10;;;;;;4981860;28;20487;-76
2023/06/09 09:35:48;;;;;;;1.50;0.80;;;31.50;69.30;;;;;;4991825;28;20677;-80
2023/06/09 09:38:17;;;;;;;1.47;0.83;;;31.60;69.20;;;;;;4970768;28;20229;-78
2023/06/09 09:40:47;;;;;;;1.47;0.80;;;31.80;69.40;;;;;;4999694;28;20986;-78
2023/06/09 09:43:15;;;;;;;1.50;0.80;;;32.00;67.60;;;;;;4968514;28;20953;-77
2023/06/09 09:45:44;;;;;;;1.47;0.80;;;32.20;67.20;;;;;;4992446;28;20233;-78
2023/06/09 09:48:14;;;;;;;1.80;1.30;;;32.30;67.70;;;;;;4961861;28;20233;-77
2023/06/09 09:50:42;;;;;;;1.50;0.90;;;32.20;67.20;;;;;;4992195;28;20221;-79
2023/06/09 09:53:10;;;;;;;1.40;0.90;;;32.30;66.10;;;;;;4978107;28;20237;-79
2023/06/09 09:55:39;;;;;;;1.47;0.80;;;32.30;67.60;;;;;;4997856;28;20210;-80
2023/06/09 09:58:08;;;;;;;1.43;0.80;;;32.40;66.30;;;;;;4985520;28;20267;-79
2023/06/09 10:00:36;;;;;;;1.47;0.80;;;32.60;66.60;;;;;;4992657;28;20201;-82
2023/06/09 10:03:08;;;;;;;1.43;0.80;;;32.60;65.40;;;;;;4984728;28;20244;-79
2023/06/09 10:05:39;;;;;;;1.50;0.90;;;32.40;66.20;;;;;;4994371;28;20198;-78
2023/06/09 10:08:06;;;;;;;1.43;0.80;;;32.40;66.90;;;;;;4979897;28;20236;-80
2023/06/09 10:10:34;;;;;;;1.40;0.80;;;32.60;67.80;;;;;;4993749;28;20201;-84
2023/06/09 10:13:03;;;;;;;1.43;0.80;;;32.80;65.80;;;;;;4982298;28;20232;-76
2023/06/09 10:15:30;;;;;;;1.47;0.80;;;32.70;65.50;;;;;;4994919;28;20310;-79
2023/06/09 10:17:59;;;;;;;1.43;0.80;;;32.70;65.40;;;;;;4985640;28;20273;-78
2023/06/09 10:20:26;;;;;;;1.47;0.80;;;32.80;66.60;;;;;;4990223;28;20203;-79
2023/06/09 10:22:55;;;;;;;1.40;0.80;;;32.80;65.00;;;;;;4980363;28;20264;-80
2023/06/09 10:25:25;;;;;;;1.43;0.80;;;32.70;64.70;;;;;;4992047;28;20206;-78
2023/06/09 10:27:52;;;;;;;1.40;0.80;;;32.60;65.20;;;;;;4981713;28;20328;-78
2023/06/09 10:30:19;;;;;;;1.43;0.80;;;32.50;62.40;;;;;;4993350;28;20511;-78
2023/06/09 10:32:52;;;;;;;1.43;0.80;;;32.20;63.70;;;;;;4979255;28;20324;-80
2023/06/09 10:35:24;;;;;;;1.48;0.90;;;32.10;64.90;;;;;;4987396;28;20727;-83
2023/06/09 10:37:51;;;;;;;1.40;0.80;;;32.30;64.30;;;;;;4982654;28;20244;-78
2023/06/09 10:40:30;;;;;;;1.47;0.80;;;32.20;65.60;;;;;;4998391;28;20235;-78
2023/06/09 10:43:21;;;;;;;1.50;1.07;;;32.20;63.70;;;;;;4980265;28;20624;-78
2023/06/09 10:45:53;;;;;;;1.40;0.93;;;32.30;63.80;;;;;;4980105;28;20225;-76
2023/06/09 10:48:45;;;;;;;1.40;0.80;;;32.30;63.10;;;;;;4984543;28;20218;-78
2023/06/09 10:51:40;;;;;;;1.40;0.80;;;32.10;63.00;;;;;;4976443;28;20247;-78
2023/06/09 10:54:24;;;;;;;1.50;0.90;;;32.30;63.10;;;;;;4973578;28;20232;-80
2023/06/09 10:56:55;;;;;;;1.40;0.80;;;32.40;62.80;;;;;;4990470;28;20239;-79
2023/06/09 11:00:11;;;;;;;1.43;0.90;;;32.60;63.90;;;;;;4997613;28;20293;-76
2023/06/09 11:02:38;;;;;;;1.40;0.80;;;32.90;61.70;;;;;;4981951;28;20232;-81
2023/06/09 11:05:05;;;;;;;1.40;0.83;;;33.00;60.30;;;;;;4990678;28;20309;-79
2023/06/09 11:07:41;;;;;;;1.43;0.80;;;33.10;60.30;;;;;;4975724;28;20842;-81
2023/06/09 11:10:28;;;;;;;1.40;0.80;;;33.20;60.70;;;;;;4983197;28;20820;-81
2023/06/09 11:12:57;;;;;;;1.50;0.90;;;33.20;59.50;;;;;;4978413;28;20259;-79
2023/06/09 11:15:35;;;;;;;1.60;1.17;;;33.30;58.70;;;;;;4994881;28;20611;-79
2023/06/09 11:18:16;;;;;;;1.40;0.80;;;33.40;60.60;;;;;;4986551;28;20229;-83
2023/06/09 11:20:43;;;;;;;1.45;0.90;;;33.70;60.20;;;;;;4993304;28;20198;-81
2023/06/09 11:23:10;;;;;;;1.48;0.90;;;33.70;59.70;;;;;;4983321;28;20325;-82
2023/06/09 11:25:38;;;;;;;1.42;0.80;;;33.70;59.40;;;;;;4988097;28;20687;-81
2023/06/09 11:28:20;;;;;;;1.40;0.80;;;33.50;58.40;;;;;;4983411;28;20233;-80
2023/06/09 11:31:02;;;;;;;1.42;0.80;;;33.40;57.40;;;;;;4983079;28;20209;-79
2023/06/09 11:33:46;;;;;;;1.50;1.00;;;33.60;59.30;;;;;;4986258;28;20331;-79
2023/06/09 11:36:18;;;;;;;1.40;0.80;;;33.70;59.00;;;;;;4981201;28;20292;-78
2023/06/09 11:38:46;;;;;;;1.42;0.90;;;33.60;58.00;;;;;;4993950;28;20244;-80
2023/06/09 11:41:14;;;;;;;1.40;0.80;;;33.80;58.10;;;;;;4988105;28;20232;-77
2023/06/09 11:43:51;;;;;;;1.40;0.80;;;33.80;58.20;;;;;;4997204;28;20221;-78
2023/06/09 11:46:20;;;;;;;1.50;1.00;;;33.90;58.10;;;;;;4984968;28;20687;-79
2023/06/09 11:49:04;;;;;;;1.40;0.80;;;33.90;57.60;;;;;;4994239;28;20204;-80
2023/06/09 11:51:56;;;;;;;1.40;0.80;;;34.00;56.80;;;;;;4988864;28;20226;-81
2023/06/09 11:54:23;;;;;;;1.42;0.80;;;34.10;57.60;;;;;;4995839;28;20300;-83
2023/06/09 11:56:51;;;;;;;1.40;0.80;;;34.40;56.20;;;;;;4986264;28;20315;-79
2023/06/09 11:59:20;;;;;;;1.40;0.80;;;34.60;57.70;;;;;;4993958;28;20212;-82
2023/06/09 12:01:49;;;;;;;1.50;1.10;;;34.70;56.00;;;;;;4988434;28;20303;-80
2023/06/09 12:04:16;;;;;;;1.42;0.80;;;34.60;55.30;;;;;;4994611;28;20277;-81
2023/06/09 12:06:46;;;;;;;1.40;0.80;;;34.50;55.60;;;;;;4985602;28;20234;-80
2023/06/09 12:09:18;;;;;;;1.40;0.90;;;34.40;54.90;;;;;;4981954;28;20204;-79
2023/06/09 12:11:52;;;;;;;1.40;0.90;;;34.20;55.50;;;;;;4980900;28;20286;-82
2023/06/09 12:14:21;;;;;;;1.40;0.80;;;34.20;55.50;;;;;;4987930;28;20768;-79
2023/06/09 12:16:48;;;;;;;1.42;0.88;;;34.30;55.10;;;;;;4976140;28;20307;-78
2023/06/09 12:19:15;;;;;;;1.40;0.80;;;34.30;55.00;;;;;;4989235;28;20216;-81
2023/06/09 12:21:45;;;;;;;1.40;0.80;;;34.30;55.60;;;;;;4978296;28;20302;-80
2023/06/09 12:24:13;;;;;;;1.40;0.80;;;34.10;56.30;;;;;;4987082;28;20230;-80
2023/06/09 12:26:40;;;;;;;1.50;1.00;;;33.90;57.00;;;;;;4979744;28;21099;-78
2023/06/09 12:29:08;;;;;;;1.40;0.80;;;34.00;56.60;;;;;;4984371;28;20209;-78
2023/06/09 12:31:43;;;;;;;1.50;1.00;;;34.00;55.20;;;;;;4978454;28;20238;-84
2023/06/09 12:34:21;;;;;;;1.40;0.80;;;33.50;55.70;;;;;;4974527;28;20261;-79
2023/06/09 12:36:48;;;;;;;1.48;0.90;;;33.10;55.90;;;;;;4979561;28;20719;-81
2023/06/09 12:39:18;;;;;;;1.50;0.98;;;32.90;56.80;;;;;;4988418;28;20531;-77
2023/06/09 12:41:45;;;;;;;1.47;0.80;;;33.00;57.00;;;;;;4978337;28;20857;-80
2023/06/09 12:44:20;;;;;;;1.50;0.80;;;33.20;57.20;;;;;;4988169;28;20216;-81
2023/06/09 12:46:54;;;;;;;1.42;0.80;;;33.30;57.60;;;;;;4972350;28;20236;-77
2023/06/09 12:49:29;;;;;;;1.45;0.80;;;33.50;57.10;;;;;;4982403;28;20284;-80
2023/06/09 12:51:56;;;;;;;1.48;0.90;;;33.60;56.10;;;;;;4972431;28;20809;-81
2023/06/09 12:54:23;;;;;;;1.40;0.80;;;33.50;57.20;;;;;;4985780;28;20229;-82
2023/06/09 12:56:50;;;;;;;1.40;0.80;;;33.40;57.10;;;;;;4972818;28;20241;-80
2023/06/09 12:59:16;;;;;;;1.40;0.80;;;33.60;57.20;;;;;;4985631;28;20216;-83
2023/06/09 13:01:47;;;;;;;1.45;0.80;;;33.90;56.30;;;;;;4974295;28;20285;-81
2023/06/09 13:04:16;;;;;;;1.40;0.80;;;34.40;57.40;;;;;;4988992;28;20229;-79